Time;durP1;ratioP1;P1;durP2;ratioP2;P2;SDS_P1;SDS_P2;PMS_P1;PMS_P2;Temp;Humidity;BMP_temperature;BMP_pressure;BME280_temperature;BME280_humidity;BME280_pressure;Samples;Min_cycle;Max_cycle;Signal;HPM_P1;HPM_P2
2022/03/17 00:02:17;;;;;;;44.50;30.13;;;;;;;13.06;55.20;102313.28;5032011;28;20053;-64
2022/03/17 00:04:44;;;;;;;44.97;31.40;;;;;;;13.04;55.07;102318.63;5032027;28;20127;-64
2022/03/17 00:07:10;;;;;;;46.72;31.55;;;;;;;13.01;55.23;102317.88;5032360;28;20045;-64
2022/03/17 00:09:37;;;;;;;45.95;31.50;;;;;;;12.99;55.26;102317.94;5030849;28;20054;-64
2022/03/17 00:12:04;;;;;;;48.65;31.48;;;;;;;12.97;55.27;102317.13;5032124;28;20046;-64
2022/03/17 00:14:31;;;;;;;50.03;32.67;;;;;;;12.97;55.22;102319.78;5032161;28;20049;-64
2022/03/17 00:16:58;;;;;;;47.80;31.83;;;;;;;12.94;55.34;102319.91;5034057;28;20080;-64
2022/03/17 00:19:25;;;;;;;46.47;31.50;;;;;;;12.93;55.39;102322.63;5035180;28;20107;-64
2022/03/17 00:21:52;;;;;;;48.40;32.80;;;;;;;12.92;55.51;102326.16;5035093;28;20050;-65
2022/03/17 00:24:19;;;;;;;47.17;31.75;;;;;;;12.88;55.41;102321.00;5035040;28;20509;-64
2022/03/17 00:26:45;;;;;;;48.22;32.88;;;;;;;12.86;55.44;102324.63;5034161;28;20104;-64
2022/03/17 00:29:12;;;;;;;50.90;32.92;;;;;;;12.85;55.52;102323.78;5034975;28;20096;-64
2022/03/17 00:31:39;;;;;;;46.38;31.23;;;;;;;12.85;55.51;102328.19;5034888;28;20072;-64
2022/03/17 00:34:07;;;;;;;48.25;32.72;;;;;;;12.82;55.48;102317.78;5035042;28;20417;-64
2022/03/17 00:36:34;;;;;;;50.40;32.90;;;;;;;12.80;55.64;102319.59;5034768;28;20061;-64
2022/03/17 00:39:05;;;;;;;48.47;31.73;;;;;;;12.77;55.68;102325.84;5034839;28;20571;-64
2022/03/17 00:41:32;;;;;;;48.95;33.47;;;;;;;12.74;55.88;102323.38;5034165;28;20045;-64
2022/03/17 00:43:59;;;;;;;52.50;35.03;;;;;;;12.76;55.87;102324.16;5033875;28;20183;-65
2022/03/17 00:46:26;;;;;;;46.72;32.60;;;;;;;12.70;55.91;102327.88;5034873;28;20045;-65
2022/03/17 00:48:53;;;;;;;49.05;32.63;;;;;;;12.69;55.76;102338.50;5034703;28;20065;-64
2022/03/17 00:51:20;;;;;;;50.05;32.35;;;;;;;12.66;55.81;102322.78;5034624;28;20107;-66
2022/03/17 00:53:46;;;;;;;49.13;33.95;;;;;;;12.62;55.97;102326.47;5034468;28;20071;-64
2022/03/17 00:56:13;;;;;;;48.17;32.47;;;;;;;12.60;55.98;102326.53;5034392;28;20591;-64
2022/03/17 00:58:45;;;;;;;53.17;34.05;;;;;;;12.60;56.18;102329.19;5034508;28;20051;-64
2022/03/17 01:01:14;;;;;;;51.20;33.50;;;;;;;12.57;56.19;102327.53;5033305;28;20052;-64
2022/03/17 01:03:42;;;;;;;49.67;33.60;;;;;;;12.57;56.09;102327.53;5034201;28;20060;-65
2022/03/17 01:06:10;;;;;;;49.97;33.13;;;;;;;12.56;56.02;102323.16;5034271;28;20049;-64
2022/03/17 01:08:38;;;;;;;50.80;34.67;;;;;;;12.54;55.89;102327.66;5034396;28;20490;-67
2022/03/17 01:11:05;;;;;;;55.53;34.28;;;;;;;12.53;56.17;102325.06;5034238;28;20049;-66
2022/03/17 01:13:32;;;;;;;50.10;32.70;;;;;;;12.51;56.15;102330.41;5034163;28;20053;-68
2022/03/17 01:15:59;;;;;;;48.92;33.45;;;;;;;12.50;56.05;102323.41;5034162;28;20378;-67
2022/03/17 01:18:26;;;;;;;50.63;34.28;;;;;;;12.50;56.13;102318.16;5032847;28;20045;-68
2022/03/17 01:20:52;;;;;;;51.83;35.55;;;;;;;12.50;56.01;102312.03;5033940;28;20045;-67
2022/03/17 01:23:19;;;;;;;55.25;34.08;;;;;;;12.48;55.98;102312.09;5034089;28;20053;-65
2022/03/17 01:25:46;;;;;;;52.38;34.67;;;;;;;12.46;56.05;102318.34;5033904;28;20045;-64
2022/03/17 01:28:12;;;;;;;52.53;33.70;;;;;;;12.43;56.14;102314.06;5034117;28;20084;-63
2022/03/17 01:30:39;;;;;;;53.80;34.25;;;;;;;12.41;56.10;102310.63;5033779;28;20099;-65
2022/03/17 01:33:05;;;;;;;50.40;33.92;;;;;;;12.40;56.16;102307.13;5033851;28;20052;-64
2022/03/17 01:35:32;;;;;;;50.10;35.15;;;;;;;12.38;56.15;102306.34;5032487;28;20057;-64
2022/03/17 01:37:59;;;;;;;53.85;35.33;;;;;;;12.34;56.35;102315.28;5033715;28;20439;-64
2022/03/17 01:40:25;;;;;;;53.28;35.08;;;;;;;12.30;56.45;102313.66;5033681;28;20476;-67
2022/03/17 01:42:52;;;;;;;55.50;36.05;;;;;;;12.30;56.44;102313.66;5033693;28;20099;-64
2022/03/17 01:45:19;;;;;;;56.38;35.65;;;;;;;12.29;56.47;102305.81;5033805;28;20110;-65
2022/03/17 01:47:46;;;;;;;54.22;36.78;;;;;;;12.28;56.26;102312.00;5033516;28;20111;-64
2022/03/17 01:50:15;;;;;;;57.90;37.00;;;;;;;12.26;56.37;102312.06;5032158;28;20046;-64
2022/03/17 01:52:42;;;;;;;53.78;35.25;;;;;;;12.23;56.54;102302.50;5032480;28;20042;-67
2022/03/17 01:55:10;;;;;;;51.08;35.20;;;;;;;12.27;56.36;102310.31;5033522;28;20041;-65
2022/03/17 01:57:41;;;;;;;55.78;35.22;;;;;;;12.24;56.41;102312.13;5033253;28;20481;-64
2022/03/17 02:00:13;;;;;;;52.35;35.35;;;;;;;12.23;56.43;102307.78;5033380;28;20053;-64
2022/03/17 02:02:45;;;;;;;52.55;35.67;;;;;;;12.20;56.51;102302.66;5033153;28;20041;-65
2022/03/17 02:05:12;;;;;;;56.40;36.33;;;;;;;12.20;56.50;102297.38;5033340;28;20045;-66
2022/03/17 02:07:40;;;;;;;57.35;35.53;;;;;;;12.21;56.52;102307.00;5032162;28;20127;-64
2022/03/17 02:10:07;;;;;;;60.70;37.00;;;;;;;12.21;56.36;102304.38;5033113;28;20050;-64
2022/03/17 02:15:33;;;;;;;53.80;34.50;;;;;;;12.23;56.52;102302.50;5109876;27;20377;-64
2022/03/17 02:18:02;;;;;;;58.53;37.35;;;;;;;12.25;56.45;102305.97;5110107;28;20048;-65
2022/03/17 02:20:29;;;;;;;58.88;35.88;;;;;;;12.28;56.20;102304.97;5110097;28;20155;-63
2022/03/17 02:25:33;;;;;;;56.83;36.50;;;;;;;12.30;56.06;102304.91;5110085;28;20048;-63
2022/03/17 02:25:54;;;;;;;64.57;38.67;;;;;;;12.31;56.05;102299.59;5089441;28;20554;-65
2022/03/17 02:28:22;;;;;;;59.78;37.65;;;;;;;12.32;56.09;102300.47;5089523;28;20085;-65
2022/03/17 02:30:48;;;;;;;60.72;39.95;;;;;;;12.29;56.13;102304.06;5089384;28;20048;-64
2022/03/17 02:33:16;;;;;;;59.78;40.42;;;;;;;12.29;56.23;102301.44;5089330;28;20056;-64
2022/03/17 02:35:45;;;;;;;65.10;41.03;;;;;;;12.29;56.24;102296.16;5089474;28;20047;-64
2022/03/17 02:38:14;;;;;;;65.57;43.67;;;;;;;12.31;56.48;102304.00;5089633;28;20040;-63
2022/03/17 02:40:47;;;;;;;76.47;43.90;;;;;;;12.33;56.46;102305.66;5088693;28;20075;-64
2022/03/17 02:43:14;;;;;;;66.85;44.17;;;;;;;12.31;56.70;102301.38;5089579;28;20408;-63
2022/03/17 02:45:42;;;;;;;65.55;44.75;;;;;;;12.34;56.71;102299.47;5089114;28;20068;-64
2022/03/17 02:48:10;;;;;;;70.35;45.92;;;;;;;12.34;56.79;102298.59;5089042;28;20135;-64
2022/03/17 02:50:37;;;;;;;68.13;43.60;;;;;;;12.36;56.89;102304.69;5089028;28;20048;-63
2022/03/17 02:53:10;;;;;;;64.90;43.85;;;;;;;12.37;57.06;102296.72;5088998;28;20476;-63
2022/03/17 02:55:40;;;;;;;65.47;43.13;;;;;;;12.38;57.02;102297.59;5094780;28;20044;-64
2022/03/17 02:58:08;;;;;;;66.57;43.05;;;;;;;12.39;57.07;102302.78;5109302;28;20044;-66
2022/03/17 03:00:36;;;;;;;64.82;43.75;;;;;;;12.36;56.94;102294.16;5109267;28;20435;-64
2022/03/17 03:03:05;;;;;;;66.07;43.50;;;;;;;12.37;56.99;102295.88;5109275;28;20120;-65
2022/03/17 03:05:32;;;;;;;63.63;43.30;;;;;;;12.38;57.00;102293.16;5109102;28;20047;-63
2022/03/17 03:07:59;;;;;;;67.30;44.72;;;;;;;12.38;57.17;102297.59;5109306;28;20044;-65
2022/03/17 03:10:25;;;;;;;68.75;46.05;;;;;;;12.39;56.98;102299.28;5109280;28;20052;-63
2022/03/17 03:12:52;;;;;;;70.90;45.40;;;;;;;12.39;57.06;102296.66;5107347;28;20052;-62
2022/03/17 03:15:19;;;;;;;69.60;45.75;;;;;;;12.39;57.11;102294.88;5088490;28;20470;-63
2022/03/17 03:17:46;;;;;;;71.28;46.75;;;;;;;12.41;56.95;102294.81;5088681;28;20408;-63
2022/03/17 03:20:13;;;;;;;72.97;47.00;;;;;;;12.38;57.17;102295.81;5088459;28;20086;-63
2022/03/17 03:22:39;;;;;;;69.32;47.20;;;;;;;12.39;57.04;102304.53;5088487;28;20048;-63
2022/03/17 03:25:07;;;;;;;75.00;48.03;;;;;;;12.37;57.15;102306.41;5084618;28;20135;-63
2022/03/17 03:27:35;;;;;;;76.22;47.67;;;;;;;12.40;57.09;102298.38;5074975;28;20390;-62
2022/03/17 03:30:02;;;;;;;73.95;49.60;;;;;;;12.40;57.08;102304.50;5088076;28;20040;-62
2022/03/17 03:32:28;;;;;;;74.10;48.63;;;;;;;12.38;57.07;102302.84;5095147;28;20466;-62
2022/03/17 03:34:55;;;;;;;73.88;49.13;;;;;;;12.36;57.24;102307.31;5095067;28;20105;-63
2022/03/17 03:37:25;;;;;;;73.38;50.25;;;;;;;12.34;57.20;102296.84;5094981;28;20048;-63
2022/03/17 03:39:54;;;;;;;76.15;49.05;;;;;;;12.33;57.35;102295.13;5094888;28;20040;-63
2022/03/17 03:42:22;;;;;;;78.93;50.47;;;;;;;12.33;57.28;102296.88;5094863;28;20044;-62
2022/03/17 03:44:49;;;;;;;75.63;49.15;;;;;;;12.33;57.44;102294.25;5094659;28;20132;-63
2022/03/17 03:47:16;;;;;;;76.75;49.45;;;;;;;12.34;57.34;102298.59;5084867;28;20044;-62
2022/03/17 03:49:43;;;;;;;84.47;53.05;;;;;;;12.32;57.41;102298.66;5074619;28;20048;-62
2022/03/17 03:52:12;;;;;;;78.55;50.38;;;;;;;12.34;57.50;102303.88;5074425;28;20546;-63
2022/03/17 03:54:40;;;;;;;77.50;51.22;;;;;;;12.36;57.45;102304.69;5074426;28;20056;-63
2022/03/17 03:57:07;;;;;;;78.32;52.17;;;;;;;12.35;57.54;102300.31;5074499;28;20044;-63
2022/03/17 03:59:34;;;;;;;81.70;51.67;;;;;;;12.34;57.55;102303.88;5074316;28;20045;-63
2022/03/17 04:02:06;;;;;;;81.32;51.40;;;;;;;12.32;57.55;102300.47;5073509;28;20048;-62
2022/03/17 04:04:34;;;;;;;84.38;53.33;;;;;;;12.32;57.46;102308.34;5088396;28;20485;-63
2022/03/17 04:07:03;;;;;;;79.85;52.50;;;;;;;12.31;57.58;102304.00;5091357;28;20059;-63
2022/03/17 04:09:35;;;;;;;84.05;54.25;;;;;;;12.33;57.60;102303.03;5090890;28;20106;-62
2022/03/17 04:12:04;;;;;;;83.20;53.42;;;;;;;12.32;57.56;102301.31;5091149;28;20044;-62
2022/03/17 04:14:32;;;;;;;89.18;54.42;;;;;;;12.34;57.63;102296.84;5090833;28;20048;-63
2022/03/17 04:16:59;;;;;;;81.05;53.08;;;;;;;12.35;57.59;102297.69;5090998;28;20049;-63
2022/03/17 04:19:27;;;;;;;81.05;53.28;;;;;;;12.35;57.58;102297.69;5090909;28;20044;-63
2022/03/17 04:21:54;;;;;;;83.07;52.78;;;;;;;12.36;57.08;102296.78;5089361;28;20043;-63
2022/03/17 04:24:21;;;;;;;83.82;53.22;;;;;;;12.37;57.52;102299.34;5090854;28;20048;-63
2022/03/17 04:26:48;;;;;;;85.97;53.15;;;;;;;12.35;57.55;102302.97;5090830;28;20098;-62
2022/03/17 04:29:15;;;;;;;80.05;52.72;;;;;;;12.35;57.62;102298.53;5090898;28;20503;-63
2022/03/17 04:31:43;;;;;;;80.38;51.00;;;;;;;12.36;57.65;102296.78;5090363;28;20052;-62
2022/03/17 04:34:11;;;;;;;81.05;52.58;;;;;;;12.38;57.62;102300.22;5090418;28;20044;-63
2022/03/17 04:36:38;;;;;;;79.60;51.90;;;;;;;12.39;57.45;102301.91;5088907;28;20052;-62
2022/03/17 04:39:06;;;;;;;78.78;51.60;;;;;;;12.39;57.57;102299.28;5088562;28;20052;-63
2022/03/17 04:41:33;;;;;;;78.00;51.22;;;;;;;12.40;57.48;102301.88;5090488;28;20044;-63
2022/03/17 04:44:00;;;;;;;79.10;50.47;;;;;;;12.41;57.42;102303.56;5074538;28;20048;-63
2022/03/17 04:46:26;;;;;;;83.78;51.58;;;;;;;12.43;57.52;102300.91;5069951;28;20558;-63
2022/03/17 04:48:53;;;;;;;76.90;51.10;;;;;;;12.39;57.52;102302.78;5070070;28;20439;-63
2022/03/17 04:51:20;;;;;;;78.32;51.35;;;;;;;12.41;57.86;102300.94;5070213;28;20048;-63
2022/03/17 04:53:46;;;;;;;76.78;48.70;;;;;;;12.44;57.40;102299.09;5077900;28;20099;-63
2022/03/17 04:56:16;;;;;;;77.07;49.13;;;;;;;12.46;57.35;102306.03;5088042;28;20492;-62
2022/03/17 04:58:44;;;;;;;71.13;46.22;;;;;;;12.46;57.40;102307.81;5090082;28;20044;-63
2022/03/17 05:01:12;;;;;;;72.40;45.60;;;;;;;12.48;57.36;102309.47;5090053;28;20044;-63
2022/03/17 05:03:40;;;;;;;71.95;46.05;;;;;;;12.49;57.14;102311.16;5090030;28;20059;-63
2022/03/17 05:06:10;;;;;;;71.43;45.30;;;;;;;12.49;57.19;102311.16;5088765;28;20120;-63
2022/03/17 05:08:37;;;;;;;67.75;43.30;;;;;;;12.49;57.08;102313.78;5089815;28;20040;-63
2022/03/17 05:11:06;;;;;;;64.65;41.50;;;;;;;12.50;57.07;102315.50;5083466;28;20045;-63
2022/03/17 05:13:33;;;;;;;70.45;42.97;;;;;;;12.50;56.96;102320.78;5069137;28;20056;-63
2022/03/17 05:16:00;;;;;;;63.20;41.55;;;;;;;12.49;56.94;102318.22;5069462;28;20048;-63
2022/03/17 05:18:27;;;;;;;62.65;40.38;;;;;;;12.51;56.81;102321.66;5069366;28;20052;-63
2022/03/17 05:20:53;;;;;;;60.90;39.45;;;;;;;12.52;56.59;102320.72;5069414;28;20044;-63
2022/03/17 05:23:21;;;;;;;64.55;39.42;;;;;;;12.53;56.54;102323.31;5069387;28;20114;-63
2022/03/17 05:25:49;;;;;;;59.17;38.33;;;;;;;12.54;56.58;102326.78;5069596;28;20106;-63
2022/03/17 05:28:16;;;;;;;58.75;37.95;;;;;;;12.54;56.51;102325.03;5068926;28;20161;-62
2022/03/17 05:30:44;;;;;;;63.28;39.75;;;;;;;12.55;56.31;102324.09;5069444;28;20044;-63
2022/03/17 05:33:11;;;;;;;61.20;38.05;;;;;;;12.57;56.14;102326.69;5069407;28;20049;-63
2022/03/17 05:35:40;;;;;;;60.40;37.78;;;;;;;12.58;56.01;102331.00;5069211;28;20576;-63
2022/03/17 05:38:07;;;;;;;56.85;36.05;;;;;;;12.61;55.93;102332.66;5069014;28;20053;-63
2022/03/17 05:40:34;;;;;;;58.70;37.35;;;;;;;12.62;55.96;102337.00;5068817;28;20041;-63
2022/03/17 05:43:06;;;;;;;55.17;36.40;;;;;;;12.61;55.85;102333.53;5069066;28;20047;-64
2022/03/17 05:45:34;;;;;;;27.98;18.48;;;;;;;13.12;55.35;102335.88;5074713;28;20048;-67
2022/03/17 05:48:04;;;;;;;54.85;34.88;;;;;;;13.23;55.33;102333.66;5069035;28;20051;-64
2022/03/17 05:50:38;;;;;;;56.65;36.08;;;;;;;13.11;55.71;102337.66;5072434;28;20044;-64
2022/03/17 05:53:08;;;;;;;57.72;35.58;;;;;;;13.02;55.54;102341.53;5085927;28;20052;-64
2022/03/17 05:55:36;;;;;;;56.38;35.03;;;;;;;12.98;55.36;102347.00;5088610;28;20093;-64
2022/03/17 05:58:04;;;;;;;61.80;35.83;;;;;;;12.95;55.28;102340.09;5088610;28;20036;-64
2022/03/17 06:00:31;;;;;;;55.30;34.25;;;;;;;12.90;55.16;102345.53;5086118;28;20036;-64
2022/03/17 06:02:59;;;;;;;52.20;33.78;;;;;;;12.88;55.04;102346.50;5088172;28;20047;-66
2022/03/17 06:05:27;;;;;;;56.17;33.72;;;;;;;12.88;54.90;102346.50;5089008;28;20044;-63
2022/03/17 06:07:58;;;;;;;33.15;22.73;;;;;;;12.96;54.97;102352.31;5088909;28;20374;-66
2022/03/17 06:10:27;;;;;;;49.55;32.60;;;;;;;13.34;55.22;102352.50;5089150;28;20048;-63
2022/03/17 06:12:55;;;;;;;54.03;33.20;;;;;;;13.17;55.55;102353.22;5089137;28;20045;-62
2022/03/17 06:15:23;;;;;;;51.20;32.58;;;;;;;13.07;55.54;102352.72;5088730;28;20059;-64
2022/03/17 06:18:00;;;;;;;52.38;32.78;;;;;;;13.03;55.28;102352.94;5088918;28;20056;-63
2022/03/17 06:20:30;;;;;;;53.30;33.35;;;;;;;12.99;55.34;102361.88;5067695;28;20049;-63
2022/03/17 06:22:59;;;;;;;52.15;32.80;;;;;;;12.98;54.98;102362.81;5068877;28;20048;-64
2022/03/17 06:25:28;;;;;;;55.63;33.38;;;;;;;12.96;54.87;102367.28;5068651;28;20048;-65
2022/03/17 06:27:55;;;;;;;51.65;33.53;;;;;;;12.94;54.94;102369.09;5068973;28;20059;-64
2022/03/17 06:30:25;;;;;;;50.30;32.45;;;;;;;12.93;54.88;102373.53;5068487;28;20053;-63
2022/03/17 06:32:54;;;;;;;53.47;32.88;;;;;;;12.92;54.92;102373.59;5068459;28;20051;-64
2022/03/17 06:35:23;;;;;;;56.50;34.80;;;;;;;12.91;54.82;102378.00;5067878;28;20048;-64
2022/03/17 06:37:52;;;;;;;56.97;34.15;;;;;;;12.90;54.70;102377.16;5068605;28;20060;-64
2022/03/17 06:40:21;;;;;;;60.85;37.65;;;;;;;12.83;55.02;102380.94;5068583;28;20053;-63
2022/03/17 06:42:48;;;;;;;69.28;39.03;;;;;;;12.83;55.22;102380.94;5068283;28;20099;-63
2022/03/17 06:45:15;;;;;;;62.42;40.90;;;;;;;12.74;55.46;102384.78;5068368;28;20404;-71
2022/03/17 06:47:43;;;;;;;70.90;44.25;;;;;;;12.70;56.05;102383.22;5068042;28;20102;-63
2022/03/17 06:50:11;;;;;;;70.38;42.17;;;;;;;12.84;56.24;102380.03;5068259;28;20077;-62
2022/03/17 06:52:38;;;;;;;74.78;47.67;;;;;;;12.90;56.25;102387.69;5080741;28;20078;-63
2022/03/17 06:55:06;;;;;;;75.15;47.53;;;;;;;12.76;56.75;102391.78;5088565;28;20109;-64
2022/03/17 06:57:32;;;;;;;75.05;46.38;;;;;;;12.64;57.30;102395.75;5088222;28;20044;-63
2022/03/17 07:00:03;;;;;;;75.43;47.00;;;;;;;12.65;57.10;102389.59;5088719;28;20048;-63
2022/03/17 07:02:29;;;;;;;78.13;47.17;;;;;;;12.63;57.26;102396.69;5092189;28;20093;-63
2022/03/17 07:04:56;;;;;;;72.32;45.63;;;;;;;12.61;57.32;102396.75;5092637;28;20058;-63
2022/03/17 07:07:23;;;;;;;74.40;47.40;;;;;;;12.54;57.57;102405.78;5092502;28;20488;-63
2022/03/17 07:09:50;;;;;;;77.85;47.70;;;;;;;12.55;57.69;102410.97;5075979;28;20048;-63
2022/03/17 07:12:16;;;;;;;76.97;48.38;;;;;;;12.53;57.94;102407.56;5071962;28;20074;-64
2022/03/17 07:14:43;;;;;;;77.90;48.03;;;;;;;12.47;58.16;102406.94;5071595;28;20122;-69
2022/03/17 07:17:10;;;;;;;77.15;47.83;;;;;;;12.45;58.18;102408.78;5071701;28;20048;-71
2022/03/17 07:19:37;;;;;;;78.78;47.97;;;;;;;12.46;58.22;102413.13;5071732;28;20080;-71
2022/03/17 07:22:04;;;;;;;77.38;47.88;;;;;;;12.45;58.26;102419.31;5071763;28;20430;-69
2022/03/17 07:24:31;;;;;;;76.95;47.08;;;;;;;12.47;58.16;102418.34;5071518;28;20048;-66
2022/03/17 07:26:59;;;;;;;75.72;47.35;;;;;;;12.43;58.32;102421.13;5071649;28;20051;-72
2022/03/17 07:29:28;;;;;;;77.55;47.65;;;;;;;12.42;58.49;102422.91;5072015;28;20489;-63
2022/03/17 07:31:56;;;;;;;77.85;48.10;;;;;;;12.47;58.38;102426.22;5071928;28;20124;-62
2022/03/17 07:34:24;;;;;;;82.30;48.83;;;;;;;12.46;58.46;102421.88;5071334;28;20078;-64
2022/03/17 07:36:51;;;;;;;56.25;36.03;;;;;;;12.61;58.39;102430.09;5073808;28;20044;-64
2022/03/17 07:39:18;;;;;;;69.75;43.30;;;;;;;13.16;57.00;102429.72;5084267;28;20448;-63
2022/03/17 07:41:45;;;;;;;81.10;48.65;;;;;;;12.89;57.63;102433.41;5076908;28;20112;-63
2022/03/17 07:44:13;;;;;;;84.45;51.60;;;;;;;13.07;57.42;102433.59;5091113;28;20048;-63
2022/03/17 07:46:41;;;;;;;81.07;51.28;;;;;;;12.85;57.97;102437.06;5086603;28;20056;-64
2022/03/17 07:49:08;;;;;;;81.60;51.10;;;;;;;12.78;57.96;102442.66;5089909;28;20557;-63
2022/03/17 07:51:37;;;;;;;80.35;49.00;;;;;;;12.67;58.28;102448.31;5090323;28;20040;-63
2022/03/17 07:54:03;;;;;;;84.25;50.63;;;;;;;12.58;58.70;102444.25;5089922;28;20044;-63
2022/03/17 07:56:30;;;;;;;79.22;49.63;;;;;;;12.58;58.62;102444.25;5089434;28;20047;-64
2022/03/17 07:58:58;;;;;;;83.93;51.28;;;;;;;12.55;58.71;102442.59;5088329;28;20040;-63
2022/03/17 08:01:25;;;;;;;77.72;48.63;;;;;;;12.58;58.63;102449.50;5087592;28;20086;-63
2022/03/17 08:03:54;;;;;;;80.55;48.85;;;;;;;12.61;58.62;102445.91;5088858;28;20093;-63
2022/03/17 08:06:25;;;;;;;82.85;50.92;;;;;;;12.61;58.54;102446.78;5090316;28;20080;-63
2022/03/17 08:08:52;;;;;;;81.97;50.20;;;;;;;12.61;58.68;102443.28;5089917;28;20121;-64
2022/03/17 08:11:19;;;;;;;84.90;51.85;;;;;;;12.57;58.84;102445.19;5090062;28;20041;-63
2022/03/17 08:13:46;;;;;;;80.90;49.15;;;;;;;12.61;58.73;102449.41;5089113;28;20105;-63
2022/03/17 08:16:13;;;;;;;83.72;50.20;;;;;;;12.62;58.78;102448.50;5089520;28;20044;-66
2022/03/17 08:18:39;;;;;;;81.65;51.33;;;;;;;12.64;58.62;102454.56;5087764;28;20047;-63
2022/03/17 08:21:06;;;;;;;100.85;60.78;;;;;;;12.66;58.73;102451.84;5088601;28;20090;-64
2022/03/17 08:23:33;;;;;;;135.73;86.03;;;;;;;12.68;58.70;102455.31;5089475;28;20448;-63
2022/03/17 08:26:00;;;;;;;114.85;69.88;;;;;;;12.68;58.77;102450.88;5089633;28;20055;-64
2022/03/17 08:28:26;;;;;;;174.25;106.28;;;;;;;12.71;58.92;102456.03;5087908;28;20048;-63
2022/03/17 08:30:53;;;;;;;98.30;61.15;;;;;;;12.71;58.77;102453.41;5089914;28;20149;-63
2022/03/17 08:33:20;;;;;;;87.32;55.65;;;;;;;12.77;58.73;102454.09;5089435;28;20135;-63
2022/03/17 08:35:47;;;;;;;92.63;57.90;;;;;;;12.78;58.91;102461.94;5088491;28;20549;-64
2022/03/17 08:38:13;;;;;;;97.30;61.22;;;;;;;12.80;58.78;102456.59;5087660;28;20117;-62
2022/03/17 08:40:40;;;;;;;93.15;55.58;;;;;;;12.80;58.76;102451.31;5084513;28;20202;-64
2022/03/17 08:43:11;;;;;;;95.38;58.15;;;;;;;12.81;58.71;102455.69;5088996;28;20109;-63
2022/03/17 08:51:10;;;;;;;100.88;62.28;;;;;;;12.90;58.38;102466.72;5089582;28;20055;-67
2022/03/17 08:53:37;;;;;;;99.90;62.88;;;;;;;12.93;58.18;102470.19;5089484;28;20429;-63
2022/03/17 08:56:04;;;;;;;91.30;55.67;;;;;;;12.93;58.27;102472.81;5090057;28;20056;-65
2022/03/17 08:58:31;;;;;;;98.65;58.80;;;;;;;12.93;58.32;102471.03;5089998;28;20648;-64
2022/03/17 09:01:00;;;;;;;88.78;49.90;;;;;;;13.15;58.01;102468.38;5086237;28;20032;-63
2022/03/17 09:03:29;;;;;;;111.35;65.38;;;;;;;13.16;57.79;102469.25;5084654;28;20460;-62
2022/03/17 09:06:00;;;;;;;95.18;57.45;;;;;;;13.18;57.87;102468.28;5089463;28;20120;-62
2022/03/17 09:08:27;;;;;;;97.53;58.38;;;;;;;13.19;57.88;102472.66;5088056;28;20105;-62
2022/03/17 09:10:55;;;;;;;146.88;78.95;;;;;;;13.17;57.98;102469.19;5088611;28;20040;-67
2022/03/17 09:13:26;;;;;;;102.75;58.45;;;;;;;13.20;57.76;102470.84;5087225;28;20051;-65
2022/03/17 09:15:54;;;;;;;52.65;30.20;;;;;;;13.54;57.27;102462.44;5088002;28;20052;-69
2022/03/17 09:18:21;;;;;;;45.95;27.67;;;;;;;13.99;56.46;102470.25;5084432;28;20511;-67
2022/03/17 09:20:49;;;;;;;88.75;53.33;;;;;;;14.10;56.16;102470.66;5086898;28;20043;-68
2022/03/17 09:23:16;;;;;;;53.13;32.28;;;;;;;14.03;56.74;102470.06;5086548;28;20056;-62
2022/03/17 09:25:43;;;;;;;118.78;69.47;;;;;;;14.06;56.37;102473.50;5088242;28;20040;-64
2022/03/17 09:28:10;;;;;;;115.50;66.20;;;;;;;13.86;56.84;102470.81;5088820;28;20109;-61
2022/03/17 09:30:37;;;;;;;104.78;63.92;;;;;;;13.74;57.23;102475.72;5088915;28;20526;-62
2022/03/17 09:33:05;;;;;;;98.80;60.47;;;;;;;13.68;57.27;102476.84;5087100;28;20052;-67
2022/03/17 09:35:34;;;;;;;141.13;89.43;;;;;;;13.61;57.47;102473.63;5085161;28;20507;-67
2022/03/17 09:38:06;;;;;;;87.90;54.92;;;;;;;13.58;57.75;102472.91;5088893;28;20040;-67
2022/03/17 09:40:34;;;;;;;78.72;48.50;;;;;;;13.54;57.63;102475.63;5085100;28;20577;-62
2022/03/17 09:43:19;;;;;;;76.25;47.38;;;;;;;13.52;57.52;102485.41;5087539;28;20089;-63
2022/03/17 09:45:50;;;;;;;77.70;45.58;;;;;;;13.53;57.93;102487.13;5087769;28;20044;-63
2022/03/17 09:48:17;;;;;;;81.03;51.38;;;;;;;13.53;57.81;102489.78;5089223;28;20133;-67
2022/03/17 09:50:46;;;;;;;83.45;50.85;;;;;;;13.53;58.00;102489.78;5088411;28;20075;-63
2022/03/17 09:53:13;;;;;;;72.88;45.17;;;;;;;13.52;58.10;102488.06;5087229;28;20545;-63
2022/03/17 09:55:43;;;;;;;72.85;45.75;;;;;;;13.53;58.01;102487.13;5076565;28;20048;-63
2022/03/17 09:58:10;;;;;;;74.15;45.42;;;;;;;13.54;58.05;102485.34;5069033;28;20455;-64
2022/03/17 10:00:49;;;;;;;63.40;38.97;;;;;;;13.54;57.86;102493.25;5068386;28;20052;-63
2022/03/17 10:03:18;;;;;;;58.42;32.53;;;;;;;13.55;57.46;102485.28;5067827;28;20093;-63
2022/03/17 10:05:46;;;;;;;50.35;32.35;;;;;;;13.58;56.96;102489.56;5068646;28;20102;-63
2022/03/17 10:08:20;;;;;;;53.83;33.45;;;;;;;13.60;56.59;102487.72;5068858;28;20132;-63
2022/03/17 10:10:49;;;;;;;54.85;33.38;;;;;;;13.61;56.25;102480.66;5068709;28;20070;-63
2022/03/17 10:13:25;;;;;;;52.22;32.63;;;;;;;13.61;55.93;102486.81;5067564;28;20150;-63
2022/03/17 10:16:22;;;;;;;49.15;32.20;;;;;;;13.63;55.38;102484.94;5068670;28;20040;-63
2022/03/17 10:18:56;;;;;;;52.17;31.42;;;;;;;13.65;55.23;102482.25;5059928;28;20083;-63
2022/03/17 10:21:27;;;;;;;48.10;30.40;;;;;;;13.66;54.91;102479.56;5068686;28;20048;-63
2022/03/17 10:24:02;;;;;;;48.63;30.10;;;;;;;13.66;54.59;102474.28;5067404;28;20443;-63
2022/03/17 10:26:39;;;;;;;45.78;29.60;;;;;;;13.69;54.24;102478.59;5068327;28;20591;-63
2022/03/17 10:29:15;;;;;;;43.60;27.73;;;;;;;13.72;53.99;102486.34;5079567;28;20044;-63
2022/03/17 10:32:01;;;;;;;41.60;25.40;;;;;;;13.74;53.49;102487.16;5085197;28;20484;-63
2022/03/17 10:34:31;;;;;;;34.88;23.70;;;;;;;13.73;52.96;102474.88;5084296;28;20127;-64
2022/03/17 10:37:07;;;;;;;35.17;24.27;;;;;;;13.77;52.39;102481.75;5091645;28;20052;-63
2022/03/17 10:39:39;;;;;;;41.53;26.13;;;;;;;13.80;52.01;102479.00;5092499;28;20086;-63
2022/03/17 10:42:10;;;;;;;32.45;23.80;;;;;;;13.85;51.65;102482.28;5092485;28;20105;-63
2022/03/17 10:44:41;;;;;;;32.63;23.33;;;;;;;13.90;51.20;102476.78;5091818;28;20051;-64
2022/03/17 10:47:10;;;;;;;28.23;20.60;;;;;;;13.90;50.72;102482.06;5087900;28;20048;-63
2022/03/17 10:49:37;;;;;;;36.38;21.20;;;;;;;13.94;50.73;102478.41;5092361;28;20051;-67
2022/03/17 10:52:04;;;;;;;27.95;19.83;;;;;;;13.95;49.98;102476.59;5091926;28;20388;-63
2022/03/17 10:54:32;;;;;;;30.15;19.42;;;;;;;13.96;49.61;102479.16;5091815;28;20059;-63
2022/03/17 10:57:05;;;;;;;24.67;18.13;;;;;;;13.97;49.01;102474.78;5091922;28;20048;-63
2022/03/17 10:59:43;;;;;;;31.15;18.80;;;;;;;14.00;48.63;102475.47;5089178;28;20097;-63
2022/03/17 11:02:17;;;;;;;27.58;17.70;;;;;;;14.03;48.17;102471.88;5091255;28;20048;-63
2022/03/17 11:04:46;;;;;;;25.13;17.20;;;;;;;14.02;48.01;102475.44;5090944;28;20040;-64
2022/03/17 11:07:14;;;;;;;26.92;17.60;;;;;;;14.03;47.68;102469.22;5088279;28;20044;-66
2022/03/17 11:09:42;;;;;;;24.50;16.77;;;;;;;14.07;47.24;102475.19;5091386;28;20036;-63
2022/03/17 11:12:17;;;;;;;22.35;17.40;;;;;;;14.11;46.82;102464.47;5088538;28;20071;-63
2022/03/17 11:14:53;;;;;;;25.90;17.80;;;;;;;14.17;46.70;102468.59;5091076;28;20094;-63
2022/03/17 11:17:31;;;;;;;24.02;17.95;;;;;;;14.20;46.20;102466.69;5090147;28;20549;-63
2022/03/17 11:20:04;;;;;;;22.73;15.75;;;;;;;14.21;45.79;102464.91;5072961;28;20051;-63
2022/03/17 11:22:32;;;;;;;22.50;16.42;;;;;;;14.22;45.65;102466.63;5070909;28;20515;-63
2022/03/17 11:25:28;;;;;;;20.23;15.90;;;;;;;14.23;45.28;102462.19;5071663;28;20451;-63